createdAt,value
2016-04-04T00:00:09.468Z,1001.15
2016-04-04T00:01:09.502Z,1001.12
2016-04-04T00:02:09.551Z,1001.11
2016-04-04T00:03:09.602Z,1001.07
2016-04-04T00:04:09.635Z,1001.06
2016-04-04T00:05:09.670Z,1001.06
2016-04-04T00:06:09.719Z,1001.02
2016-04-04T00:07:09.753Z,1000.98
2016-04-04T00:08:09.803Z,1000.98
2016-04-04T00:09:09.836Z,1000.98
2016-04-04T00:10:09.870Z,1000.97
2016-04-04T00:11:09.920Z,1000.96
2016-04-04T00:12:09.954Z,1000.97
2016-04-04T00:13:09.988Z,1000.98
2016-04-04T00:14:10.022Z,1000.98
2016-04-04T00:15:10.072Z,1000.98
2016-04-04T00:16:10.106Z,1001
2016-04-04T00:17:10.155Z,1001.02
2016-04-04T00:18:10.188Z,1001.03
2016-04-04T00:19:10.222Z,1001.05
2016-04-04T00:20:10.272Z,1001.09
2016-04-04T00:21:10.306Z,1001.08
2016-04-04T00:22:10.341Z,1001.09
2016-04-04T00:23:10.390Z,1001.02
2016-04-04T00:24:10.424Z,1001.09
2016-04-04T00:25:10.473Z,1001.04
2016-04-04T00:26:10.523Z,1001.01
2016-04-04T00:27:10.541Z,1001.01
2016-04-04T00:28:10.591Z,1000.98
2016-04-04T00:29:10.624Z,1000.99
2016-04-04T00:30:10.674Z,1000.97
2016-04-04T00:31:10.707Z,1001
2016-04-04T00:32:10.757Z,1000.98
2016-04-04T00:33:10.792Z,1000.98
2016-04-04T00:34:10.826Z,1001.02
2016-04-04T00:35:10.859Z,1001
2016-04-04T00:36:10.909Z,1001.01
2016-04-04T00:37:10.942Z,1001.03
2016-04-04T00:38:10.992Z,1000.97
2016-04-04T00:39:11.027Z,1000.91
2016-04-04T00:40:11.060Z,1000.91
2016-04-04T00:41:11.110Z,1000.87
2016-04-04T00:42:11.144Z,1000.89
2016-04-04T00:43:11.193Z,1000.88
2016-04-04T00:44:11.227Z,1000.85
2016-04-04T00:45:11.262Z,1000.88
2016-04-04T00:46:11.295Z,1000.9
2016-04-04T00:47:11.345Z,1000.91
2016-04-04T00:48:11.394Z,1000.92
2016-04-04T00:49:11.428Z,1000.92
2016-04-04T00:50:11.462Z,1000.89
2016-04-04T00:51:11.496Z,1000.83
2016-04-04T00:52:11.546Z,1000.88
2016-04-04T00:53:11.580Z,1000.9
2016-04-04T00:54:11.629Z,1000.92
2016-04-04T00:55:11.663Z,1000.88
2016-04-04T00:56:11.697Z,1000.9
2016-04-04T00:57:11.732Z,1000.9
2016-04-04T00:58:11.780Z,1000.87
2016-04-04T00:59:11.815Z,1000.86
2016-04-04T01:00:11.864Z,1000.86
2016-04-04T01:01:11.898Z,1000.84
2016-04-04T01:02:11.948Z,1000.85
2016-04-04T01:03:11.982Z,1000.85
2016-04-04T01:04:12.016Z,1000.84
2016-04-04T01:05:12.049Z,1000.88
2016-04-04T01:06:12.099Z,1000.85
2016-04-04T01:07:12.134Z,1000.76
2016-04-04T01:08:12.183Z,1000.79
2016-04-04T01:09:12.217Z,1000.78
2016-04-04T01:10:12.251Z,1000.79
2016-04-04T01:11:12.301Z,1000.73
2016-04-04T01:12:12.334Z,1000.67
2016-04-04T01:13:12.368Z,1000.67
2016-04-04T01:14:12.417Z,1000.66
2016-04-04T01:15:12.451Z,1000.65
2016-04-04T01:16:12.486Z,1000.64
2016-04-04T01:17:12.535Z,1000.62
2016-04-04T01:18:12.569Z,1000.62
2016-04-04T01:19:12.619Z,1000.58
2016-04-04T01:20:12.652Z,1000.57
2016-04-04T01:21:12.686Z,1000.5
2016-04-04T01:22:12.720Z,1000.5
2016-04-04T01:23:12.770Z,1000.49
2016-04-04T01:24:12.805Z,1000.49
2016-04-04T01:25:12.853Z,1000.49
2016-04-04T01:26:12.888Z,1000.5
2016-04-04T01:27:12.921Z,1000.48
2016-04-04T01:28:12.955Z,1000.46
2016-04-04T01:29:13.004Z,1000.46
2016-04-04T01:30:13.038Z,1000.43
2016-04-04T01:31:13.088Z,1000.38
2016-04-04T01:32:13.122Z,1000.37
2016-04-04T01:33:13.172Z,1000.4
2016-04-04T01:34:13.206Z,1000.37
2016-04-04T01:35:13.240Z,1000.33
2016-04-04T01:36:13.274Z,1000.31
2016-04-04T01:37:13.324Z,1000.31
2016-04-04T01:38:13.357Z,1000.28
2016-04-04T01:39:13.391Z,1000.26
2016-04-04T01:40:13.441Z,1000.25
2016-04-04T01:41:13.475Z,1000.24
2016-04-04T01:42:13.509Z,1000.24
2016-04-04T01:43:13.558Z,1000.27
2016-04-04T01:44:13.592Z,1000.23
2016-04-04T01:45:13.626Z,1000.19
2016-04-04T01:46:13.675Z,1000.13
2016-04-04T01:47:13.709Z,1000.17
2016-04-04T01:48:13.743Z,1000.13
2016-04-04T01:49:13.792Z,1000.08
2016-04-04T01:50:13.827Z,1000.1
2016-04-04T01:51:13.860Z,1000.08
2016-04-04T01:52:13.910Z,1000.09
2016-04-04T01:53:13.944Z,1000.03
2016-04-04T01:54:13.977Z,999.97
2016-04-04T01:55:14.027Z,999.97
2016-04-04T01:56:14.061Z,999.97
2016-04-04T01:57:14.096Z,999.95
2016-04-04T01:58:14.129Z,999.9
2016-04-04T01:59:14.179Z,999.92
2016-04-04T02:00:14.218Z,999.89
2016-04-04T02:01:14.252Z,999.92
2016-04-04T02:02:14.286Z,999.85
2016-04-04T02:03:14.335Z,999.83
2016-04-04T02:04:14.370Z,999.84
2016-04-04T02:05:14.418Z,999.82
2016-04-04T02:06:14.453Z,999.79
2016-04-04T02:07:14.487Z,999.76
2016-04-04T02:08:14.520Z,999.72
2016-04-04T02:09:14.570Z,999.76
2016-04-04T02:10:14.604Z,999.72
2016-04-04T02:11:14.654Z,999.76
2016-04-04T02:12:14.687Z,999.75
2016-04-04T02:13:14.722Z,999.77
2016-04-04T02:14:14.756Z,999.75
2016-04-04T02:15:14.806Z,999.75
2016-04-04T02:16:14.839Z,999.71
2016-04-04T02:17:14.873Z,999.71
2016-04-04T02:18:14.922Z,999.66
2016-04-04T02:19:14.956Z,999.69
2016-04-04T02:20:14.991Z,999.74
2016-04-04T02:21:15.041Z,999.74
2016-04-04T02:22:15.075Z,999.68
2016-04-04T02:23:15.108Z,999.67
2016-04-04T02:24:15.158Z,999.7
2016-04-04T02:25:15.191Z,999.72
2016-04-04T02:26:15.225Z,999.74
2016-04-04T02:27:15.260Z,999.7
2016-04-04T02:28:15.294Z,999.7
2016-04-04T02:29:15.343Z,999.69
2016-04-04T02:30:15.377Z,999.69
2016-04-04T02:31:15.427Z,999.68
2016-04-04T02:32:15.460Z,999.67
2016-04-04T02:33:15.494Z,999.69
2016-04-04T02:34:15.544Z,999.7
2016-04-04T02:35:15.578Z,999.65
2016-04-04T02:36:15.612Z,999.65
2016-04-04T02:37:15.646Z,999.6
2016-04-04T02:38:15.695Z,999.57
2016-04-04T02:39:15.729Z,999.57
2016-04-04T02:40:15.763Z,999.58
2016-04-04T02:41:15.812Z,999.57
2016-04-04T02:42:15.847Z,999.55
2016-04-04T02:43:15.881Z,999.55
2016-04-04T02:44:15.915Z,999.55
2016-04-04T02:45:15.964Z,999.54
2016-04-04T02:46:16.014Z,999.52
2016-04-04T02:47:16.048Z,999.52
2016-04-04T02:48:16.081Z,999.52
2016-04-04T02:49:16.131Z,999.51
2016-04-04T02:50:16.164Z,999.51
2016-04-04T02:51:16.199Z,999.47
2016-04-04T02:52:16.249Z,999.47
2016-04-04T02:53:16.282Z,999.52
2016-04-04T02:54:16.316Z,999.51
2016-04-04T02:55:16.350Z,999.43
2016-04-04T02:56:16.384Z,999.36
2016-04-04T02:57:16.434Z,999.38
2016-04-04T02:58:16.468Z,999.39
2016-04-04T02:59:16.502Z,999.37
2016-04-04T03:00:16.551Z,999.32
2016-04-04T03:01:16.586Z,999.34
2016-04-04T03:02:16.619Z,999.35
2016-04-04T03:03:16.668Z,999.32
2016-04-04T03:04:16.703Z,999.35
2016-04-04T03:05:16.737Z,999.36
2016-04-04T03:06:16.787Z,999.43
2016-04-04T03:07:16.820Z,999.41
2016-04-04T03:08:17.019Z,999.44
2016-04-04T03:09:16.897Z,999.41
2016-04-04T03:10:16.930Z,999.4
2016-04-04T03:11:16.980Z,999.41
2016-04-04T03:12:17.015Z,999.46
2016-04-04T03:13:17.048Z,999.45
2016-04-04T03:14:17.098Z,999.41
2016-04-04T03:15:17.132Z,999.42
2016-04-04T03:16:17.165Z,999.39
2016-04-04T03:17:17.199Z,999.34
2016-04-04T03:18:17.249Z,999.33
2016-04-04T03:19:17.284Z,999.31
2016-04-04T03:20:17.317Z,999.26
2016-04-04T03:21:17.367Z,999.26
2016-04-04T03:22:17.401Z,999.25
2016-04-04T03:23:17.434Z,999.23
2016-04-04T03:24:17.484Z,999.2
2016-04-04T03:25:17.518Z,999.17
2016-04-04T03:26:17.552Z,999.16
2016-04-04T03:27:17.601Z,999.11
2016-04-04T03:28:17.636Z,999.08
2016-04-04T03:29:17.669Z,999.09
2016-04-04T03:30:17.719Z,999.09
2016-04-04T03:31:17.753Z,999.09
2016-04-04T03:32:17.786Z,999.07
2016-04-04T03:33:17.836Z,999.12
2016-04-04T03:34:17.870Z,999.13
2016-04-04T03:35:17.905Z,999.13
2016-04-04T03:36:17.938Z,999.15
2016-04-04T03:37:17.988Z,999.14
2016-04-04T03:38:18.022Z,999.1
2016-04-04T03:39:18.056Z,999.1
2016-04-04T03:40:18.105Z,999.05
2016-04-04T03:41:18.138Z,999.05
2016-04-04T03:42:18.174Z,998.98
2016-04-04T03:43:18.223Z,998.98
2016-04-04T03:44:18.256Z,998.98
2016-04-04T03:45:18.291Z,999.01
2016-04-04T03:46:18.341Z,999.02
2016-04-04T03:47:18.374Z,999.04
2016-04-04T03:48:18.407Z,999.05
2016-04-04T03:49:18.443Z,999.01
2016-04-04T03:50:18.492Z,999.01
2016-04-04T03:51:18.525Z,999.01
2016-04-04T03:52:18.559Z,998.97
2016-04-04T03:53:18.609Z,999
2016-04-04T03:54:18.643Z,999.02
2016-04-04T03:55:18.692Z,999.02
2016-04-04T03:56:18.726Z,998.99
2016-04-04T03:57:18.761Z,998.99
2016-04-04T03:58:18.795Z,998.97
2016-04-04T03:59:18.844Z,998.97
2016-04-04T04:00:18.878Z,998.98
2016-04-04T04:01:18.912Z,998.99
2016-04-04T04:02:18.961Z,998.97
2016-04-04T04:03:18.995Z,999
2016-04-04T04:04:19.030Z,999.01
2016-04-04T04:05:19.078Z,999.02
2016-04-04T04:06:19.114Z,999.05
2016-04-04T04:07:19.148Z,999.02
2016-04-04T04:08:19.181Z,999.04
2016-04-04T04:09:19.231Z,999.02
2016-04-04T04:10:19.265Z,999.01
2016-04-04T04:11:19.299Z,999.01
2016-04-04T04:12:19.348Z,999.04
2016-04-04T04:13:19.383Z,999.02
2016-04-04T04:14:19.417Z,998.99
2016-04-04T04:15:19.450Z,999.04
2016-04-04T04:16:19.500Z,999.03
2016-04-04T04:17:19.534Z,999.06
2016-04-04T04:18:19.568Z,999.04
2016-04-04T04:19:19.617Z,999.07
2016-04-04T04:20:19.651Z,999.07
2016-04-04T04:21:19.702Z,999.07
2016-04-04T04:22:19.719Z,999.07
2016-04-04T04:23:19.768Z,999.09
2016-04-04T04:24:19.803Z,999.06
2016-04-04T04:25:19.837Z,999.03
2016-04-04T04:26:19.886Z,999.05
2016-04-04T04:27:19.920Z,999.06
2016-04-04T04:28:19.971Z,999.03
2016-04-04T04:29:20.004Z,999.01
2016-04-04T04:30:20.037Z,999.02
2016-04-04T04:31:20.071Z,999.02
2016-04-04T04:32:20.105Z,998.99
2016-04-04T04:33:20.155Z,998.99
2016-04-04T04:34:20.189Z,999.02
2016-04-04T04:35:20.239Z,999.02
2016-04-04T04:36:20.273Z,999.04
2016-04-04T04:37:20.306Z,999.06
2016-04-04T04:38:20.340Z,999.03
2016-04-04T04:39:20.389Z,999.05
2016-04-04T04:40:20.424Z,999.05
2016-04-04T04:41:20.473Z,999.03
2016-04-04T04:42:20.508Z,999.01
2016-04-04T04:43:20.541Z,999.03
2016-04-04T04:44:20.575Z,999.01
2016-04-04T04:45:20.609Z,999.03
2016-04-04T04:46:20.658Z,998.99
2016-04-04T04:47:20.692Z,999
2016-04-04T04:48:20.727Z,999.01
2016-04-04T04:49:20.777Z,999.03
2016-04-04T04:50:20.810Z,999.02
2016-04-04T04:51:20.844Z,998.98
2016-04-04T04:52:20.894Z,998.97
2016-04-04T04:53:20.927Z,998.97
2016-04-04T04:54:20.961Z,998.92
2016-04-04T04:55:21.010Z,998.94
2016-04-04T04:56:21.045Z,998.96
2016-04-04T04:57:21.079Z,998.94
2016-04-04T04:58:21.113Z,998.95
2016-04-04T04:59:21.162Z,998.95
2016-04-04T05:00:21.196Z,998.98
2016-04-04T05:01:21.230Z,998.98
2016-04-04T05:02:21.279Z,999.02
2016-04-04T05:03:21.315Z,999.01
2016-04-04T05:04:21.348Z,999.01
2016-04-04T05:05:21.398Z,999.05
2016-04-04T05:06:21.431Z,999.06
2016-04-04T05:07:21.465Z,999.07
2016-04-04T05:08:21.499Z,999.07
2016-04-04T05:09:21.548Z,999.05
2016-04-04T05:10:21.583Z,999.03
2016-04-04T05:11:21.616Z,999.03
2016-04-04T05:12:21.651Z,999.02
2016-04-04T05:13:21.700Z,999.06
2016-04-04T05:14:21.733Z,999.02
2016-04-04T05:15:21.768Z,999
2016-04-04T05:16:21.818Z,999
2016-04-04T05:17:21.852Z,999.03
2016-04-04T05:18:21.885Z,999.05
2016-04-04T05:19:21.936Z,999.05
2016-04-04T05:20:21.969Z,999.01
2016-04-04T05:21:22.002Z,999.04
2016-04-04T05:22:22.036Z,999.06
2016-04-04T05:23:22.086Z,999.05
2016-04-04T05:24:22.121Z,999.06
2016-04-04T05:25:22.154Z,999.08
2016-04-04T05:26:22.193Z,999.07
2016-04-04T05:27:22.233Z,999.08
2016-04-04T05:28:22.271Z,999.12
2016-04-04T05:29:22.305Z,999.11
2016-04-04T05:30:22.355Z,999.1
2016-04-04T05:31:22.390Z,999.09
2016-04-04T05:32:22.438Z,999.08
2016-04-04T05:33:22.473Z,999.07
2016-04-04T05:34:22.506Z,999.06
2016-04-04T05:35:22.556Z,999.09
2016-04-04T05:36:22.590Z,999.07
2016-04-04T05:37:22.624Z,999.08
2016-04-04T05:38:22.659Z,999.16
2016-04-04T05:39:22.692Z,999.17
2016-04-04T05:40:22.742Z,999.17
2016-04-04T05:41:22.775Z,999.13
2016-04-04T05:42:22.809Z,999.13
2016-04-04T05:43:22.859Z,999.16
2016-04-04T05:44:22.892Z,999.11
2016-04-04T05:45:22.928Z,999.13
2016-04-04T05:46:22.976Z,999.1
2016-04-04T05:47:23.011Z,999.11
2016-04-04T05:48:23.045Z,999.12
2016-04-04T05:49:23.109Z,999.11
2016-04-04T05:50:23.128Z,999.11
2016-04-04T05:51:23.161Z,999.1
2016-04-04T05:52:23.211Z,999.14
2016-04-04T05:53:23.244Z,999.12
2016-04-04T05:54:23.280Z,999.09
2016-04-04T05:55:23.329Z,999.07
2016-04-04T05:56:23.362Z,999.1
2016-04-04T05:57:23.397Z,999.09
2016-04-04T05:58:23.447Z,999.08
2016-04-04T05:59:23.480Z,999.09
2016-04-04T06:00:23.529Z,999.07
2016-04-04T06:01:23.563Z,999.03
2016-04-04T06:02:23.598Z,999.06
2016-04-04T06:03:23.631Z,999.03
2016-04-04T06:04:23.681Z,999.05
2016-04-04T06:05:23.715Z,999.03
2016-04-04T06:06:23.749Z,999.06
2016-04-04T06:07:23.798Z,999.05
2016-04-04T06:08:23.832Z,999.04
2016-04-04T06:09:23.867Z,999.06
2016-04-04T06:10:23.915Z,999.02
2016-04-04T06:11:23.950Z,999.02
2016-04-04T06:12:24.000Z,999.04
2016-04-04T06:13:24.033Z,999.05
2016-04-04T06:14:24.067Z,998.99
2016-04-04T06:15:24.117Z,999.06
2016-04-04T06:16:24.150Z,999
2016-04-04T06:17:24.200Z,999.05
2016-04-04T06:18:24.234Z,999.1
2016-04-04T06:19:24.269Z,999.11
2016-04-04T06:20:24.317Z,999.12
2016-04-04T06:21:24.352Z,999.06
2016-04-04T06:22:24.386Z,999.14
2016-04-04T06:23:24.435Z,999.11
2016-04-04T06:24:24.469Z,999.15
2016-04-04T06:25:24.518Z,999.12
2016-04-04T06:26:24.552Z,999.13
2016-04-04T06:27:24.602Z,999.13
2016-04-04T06:28:24.635Z,999.19
2016-04-04T06:29:24.671Z,999.21
2016-04-04T06:30:24.719Z,999.19
2016-04-04T06:31:24.754Z,999.18
2016-04-04T06:32:24.803Z,999.15
2016-04-04T06:33:24.838Z,999.17
2016-04-04T06:34:24.871Z,999.2
2016-04-04T06:35:24.920Z,999.2
2016-04-04T06:36:24.955Z,999.21
2016-04-04T06:37:25.004Z,999.22
2016-04-04T06:38:25.038Z,999.17
2016-04-04T06:39:25.087Z,999.12
2016-04-04T06:40:25.121Z,999.14
2016-04-04T06:41:25.156Z,999.13
2016-04-04T06:42:25.205Z,999.14
2016-04-04T06:43:25.239Z,999.15
2016-04-04T06:44:25.289Z,999.19
2016-04-04T06:45:25.339Z,999.17
2016-04-04T06:46:25.372Z,999.19
2016-04-04T06:47:25.406Z,999.17
2016-04-04T06:48:25.440Z,999.21
2016-04-04T06:49:25.489Z,999.22
2016-04-04T06:50:25.539Z,999.2
2016-04-04T06:51:25.572Z,999.23
2016-04-04T06:52:25.622Z,999.18
2016-04-04T06:53:25.656Z,999.19
2016-04-04T06:54:25.691Z,999.14
2016-04-04T06:55:25.740Z,999.13
2016-04-04T06:56:25.774Z,999.11
2016-04-04T06:57:25.824Z,999.12
2016-04-04T06:58:25.857Z,999.09
2016-04-04T06:59:25.907Z,999.08
2016-04-04T07:00:25.946Z,999.07
2016-04-04T07:01:25.980Z,999.12
2016-04-04T07:02:26.013Z,999.06
2016-04-04T07:03:26.079Z,999.09
2016-04-04T07:04:26.097Z,999.04
2016-04-04T07:05:26.147Z,999.09
2016-04-04T07:06:26.181Z,999.1
2016-04-04T07:07:26.231Z,999.1
2016-04-04T07:08:26.279Z,999.11
2016-04-04T07:09:26.314Z,999.1
2016-04-04T07:10:26.347Z,999.12
2016-04-04T07:11:26.397Z,999.1
2016-04-04T07:12:26.431Z,999.12
2016-04-04T07:13:26.480Z,999.13
2016-04-04T07:14:26.515Z,999.13
2016-04-04T07:15:26.564Z,999.19
2016-04-04T07:16:26.597Z,999.21
2016-04-04T07:17:26.632Z,999.23
2016-04-04T07:18:26.681Z,999.22
2016-04-04T07:19:26.716Z,999.17
2016-04-04T07:20:26.765Z,999.21
2016-04-04T07:21:26.800Z,999.18
2016-04-04T07:22:26.849Z,999.11
2016-04-04T07:23:26.883Z,999.04
2016-04-04T07:24:26.932Z,999.09
2016-04-04T07:25:26.966Z,999.03
2016-04-04T07:26:27.016Z,999.02
2016-04-04T07:27:27.050Z,998.97
2016-04-04T07:28:27.099Z,999
2016-04-04T07:29:27.132Z,999.03
2016-04-04T07:30:27.183Z,999.02
2016-04-04T07:31:27.217Z,999.02
2016-04-04T07:32:27.266Z,998.95
2016-04-04T07:33:27.300Z,998.97
2016-04-04T07:34:27.350Z,998.95
2016-04-04T07:35:27.383Z,998.96
2016-04-04T07:36:27.418Z,999
2016-04-04T07:37:27.467Z,998.95
2016-04-04T07:38:27.517Z,998.91
2016-04-04T07:39:27.551Z,998.93
2016-04-04T07:40:27.601Z,998.91
2016-04-04T07:41:27.634Z,998.95
2016-04-04T07:42:27.667Z,998.94
2016-04-04T07:43:27.718Z,998.9
2016-04-04T07:44:27.752Z,998.89
2016-04-04T07:45:27.801Z,998.94
2016-04-04T07:46:27.835Z,998.92
2016-04-04T07:47:27.884Z,998.95
2016-04-04T07:48:27.919Z,998.93
2016-04-04T07:49:27.969Z,998.93
2016-04-04T07:50:28.002Z,998.94
2016-04-04T07:51:28.052Z,998.97
2016-04-04T07:52:28.085Z,998.91
2016-04-04T07:53:28.136Z,998.95
2016-04-04T07:54:28.169Z,998.92
2016-04-04T07:55:28.218Z,998.95
2016-04-04T07:56:28.269Z,998.96
2016-04-04T07:57:28.302Z,998.99
2016-04-04T07:58:28.352Z,998.99
2016-04-04T07:59:28.385Z,999.03
2016-04-04T08:00:28.435Z,999.01
2016-04-04T08:01:28.468Z,998.97
2016-04-04T08:02:28.519Z,999.01
2016-04-04T08:03:28.552Z,998.95
2016-04-04T08:04:28.602Z,998.92
2016-04-04T08:05:28.637Z,998.95
2016-04-04T08:06:28.686Z,998.91
2016-04-04T08:07:28.735Z,998.96
2016-04-04T08:08:28.769Z,998.97
2016-04-04T08:09:28.818Z,998.91
2016-04-04T08:10:28.853Z,998.91
2016-04-04T08:11:28.903Z,998.91
2016-04-04T08:12:28.936Z,998.87
2016-04-04T08:13:28.986Z,998.93
2016-04-04T08:14:29.035Z,998.94
2016-04-04T08:15:29.069Z,998.94
2016-04-04T08:16:29.119Z,998.95
2016-04-04T08:17:29.169Z,998.96
2016-04-04T08:18:29.203Z,998.96
2016-04-04T08:19:29.252Z,999
2016-04-04T08:20:29.302Z,999.02
2016-04-04T08:21:29.351Z,999.05
2016-04-04T08:22:29.385Z,999.02
2016-04-04T08:23:29.435Z,999.06
2016-04-04T08:24:29.484Z,999.08
2016-04-04T08:25:29.519Z,999.01
2016-04-04T08:26:29.568Z,999.1
2016-04-04T08:27:29.617Z,999.07
2016-04-04T08:28:29.651Z,999.04
2016-04-04T08:29:29.702Z,999.06
2016-04-04T08:30:29.735Z,999.11
2016-04-04T08:31:29.785Z,999.04
2016-04-04T08:32:29.834Z,999.11
2016-04-04T08:33:29.873Z,999.06
2016-04-04T08:34:29.896Z,999.07
2016-04-04T08:35:29.934Z,999
2016-04-04T08:36:29.971Z,998.97
2016-04-04T08:37:29.993Z,998.99
2016-04-04T08:38:30.038Z,998.98
2016-04-04T08:39:30.082Z,999.06
2016-04-04T08:40:30.127Z,999.05
2016-04-04T08:41:30.158Z,999
2016-04-04T08:42:30.202Z,998.95
2016-04-04T08:43:30.235Z,999.06
2016-04-04T08:44:30.283Z,999.03
2016-04-04T08:45:30.331Z,999.02
2016-04-04T08:46:30.364Z,998.95
2016-04-04T08:47:30.411Z,998.94
2016-04-04T08:48:30.445Z,998.93
2016-04-04T08:49:30.493Z,998.93
2016-04-04T08:50:30.542Z,998.93
2016-04-04T08:51:30.590Z,998.91
2016-04-04T08:52:30.624Z,998.92
2016-04-04T08:53:30.673Z,998.94
2016-04-04T08:54:30.738Z,998.95
2016-04-04T08:55:30.756Z,998.95
2016-04-04T08:56:30.805Z,998.92
2016-04-04T08:57:30.853Z,998.98
2016-04-04T08:58:30.888Z,998.93
2016-04-04T08:59:30.938Z,998.93
2016-04-04T09:00:30.972Z,998.92
2016-04-04T09:01:31.021Z,998.9
2016-04-04T09:02:31.070Z,998.87
2016-04-04T09:03:31.136Z,998.9
2016-04-04T09:04:31.154Z,998.84
2016-04-04T09:05:31.204Z,998.93
2016-04-04T09:06:31.237Z,998.9
2016-04-04T09:07:31.287Z,998.93
2016-04-04T09:08:31.321Z,998.9
2016-04-04T09:09:31.371Z,998.93
2016-04-04T09:10:31.420Z,998.93
2016-04-04T09:11:31.470Z,998.95
2016-04-04T09:12:31.503Z,998.94
2016-04-04T09:13:31.553Z,998.93
2016-04-04T09:14:31.587Z,998.89
2016-04-04T09:15:31.637Z,998.94
2016-04-04T09:16:31.686Z,998.93
2016-04-04T09:17:31.720Z,998.99
2016-04-04T09:18:31.770Z,999.03
2016-04-04T09:19:31.819Z,999.06
2016-04-04T09:20:31.853Z,999.11
2016-04-04T09:21:31.903Z,999.1
2016-04-04T09:22:31.952Z,999.1
2016-04-04T09:23:31.986Z,999.17
2016-04-04T09:24:32.036Z,999.14
2016-04-04T09:25:32.070Z,999.18
2016-04-04T09:26:32.135Z,999.22
2016-04-04T09:27:32.169Z,999.18
2016-04-04T09:28:32.203Z,999.2
2016-04-04T09:29:32.252Z,999.16
2016-04-04T09:30:32.286Z,999.15
2016-04-04T09:31:32.336Z,999.17
2016-04-04T09:32:32.385Z,999.2
2016-04-04T09:33:32.419Z,999.13
2016-04-04T09:34:32.469Z,999.16
2016-04-04T09:35:32.502Z,999.16
2016-04-04T09:36:32.552Z,999.18
2016-04-04T09:37:32.602Z,999.14
2016-04-04T09:38:32.652Z,999.15
2016-04-04T09:39:32.685Z,999.17
2016-04-04T09:40:32.719Z,999.17
2016-04-04T09:41:32.768Z,999.17
2016-04-04T09:42:32.818Z,999.15
2016-04-04T09:43:32.852Z,999.1
2016-04-04T09:44:32.902Z,999.08
2016-04-04T09:45:32.937Z,999.09
2016-04-04T09:46:32.985Z,999.08
2016-04-04T09:47:33.019Z,999.03
2016-04-04T09:48:33.070Z,999.04
2016-04-04T09:49:33.104Z,999.01
2016-04-04T09:50:33.153Z,998.95
2016-04-04T09:51:33.202Z,998.99
2016-04-04T09:52:33.236Z,998.98
2016-04-04T09:53:33.269Z,999.06
2016-04-04T09:54:33.319Z,999.09
2016-04-04T09:55:33.370Z,999.05
2016-04-04T09:56:33.403Z,999.11
2016-04-04T09:57:33.469Z,999.06
2016-04-04T09:58:33.486Z,999.03
2016-04-04T09:59:33.536Z,999.04
2016-04-04T10:00:33.570Z,999.05
2016-04-04T10:01:33.620Z,999.05
2016-04-04T10:02:33.670Z,999
2016-04-04T10:03:33.703Z,999.03
2016-04-04T10:04:33.752Z,999.09
2016-04-04T10:05:33.786Z,999.04
2016-04-04T10:06:33.836Z,999.05
2016-04-04T10:07:33.871Z,999.01
2016-04-04T10:08:33.919Z,999.1
2016-04-04T10:09:33.959Z,999.03
2016-04-04T10:10:34.007Z,999.04
2016-04-04T10:11:34.058Z,999.09
2016-04-04T10:12:34.092Z,999.12
2016-04-04T10:13:34.141Z,999.13
2016-04-04T10:14:34.175Z,999.1
2016-04-04T10:15:34.225Z,999.03
2016-04-04T10:16:34.259Z,999.04
2016-04-04T10:17:34.309Z,999.08
2016-04-04T10:18:34.358Z,999.12
2016-04-04T10:19:34.392Z,999.22
2016-04-04T10:20:34.441Z,999.08
2016-04-04T10:21:34.475Z,999.17
2016-04-04T10:22:34.525Z,999.08
2016-04-04T10:23:34.559Z,999.06
2016-04-04T10:24:34.608Z,999.03
2016-04-04T10:25:34.658Z,999.07
2016-04-04T10:26:34.692Z,998.95
2016-04-04T10:27:34.742Z,998.96
2016-04-04T10:28:34.775Z,998.93
2016-04-04T10:29:34.825Z,998.94
2016-04-04T10:30:34.874Z,998.96
2016-04-04T10:31:34.908Z,998.91
2016-04-04T10:32:34.957Z,998.96
2016-04-04T10:33:35.008Z,999.01
2016-04-04T10:34:35.042Z,998.99
2016-04-04T10:35:35.075Z,999.04
2016-04-04T10:36:35.140Z,999.07
2016-04-04T10:37:35.159Z,999.01
2016-04-04T10:38:35.207Z,999.06
2016-04-04T10:39:35.257Z,999.15
2016-04-04T10:40:35.293Z,999.05
2016-04-04T10:41:35.341Z,999.07
2016-04-04T10:42:35.376Z,999.05
2016-04-04T10:43:35.425Z,999.23
2016-04-04T10:44:35.459Z,999.02
2016-04-04T10:45:35.509Z,999.09
2016-04-04T10:46:35.559Z,999.02
2016-04-04T10:47:35.592Z,999.03
2016-04-04T10:48:35.642Z,998.98
2016-04-04T10:49:35.675Z,998.96
2016-04-04T10:50:35.725Z,998.94
2016-04-04T10:51:35.775Z,999.07
2016-04-04T10:52:35.809Z,999.02
2016-04-04T10:53:35.858Z,998.95
2016-04-04T10:54:35.892Z,999.04
2016-04-04T10:55:35.941Z,999.02
2016-04-04T10:56:35.975Z,999.08
2016-04-04T10:57:36.025Z,999.02
2016-04-04T10:58:36.075Z,999.03
2016-04-04T10:59:36.108Z,999
2016-04-04T11:00:36.158Z,998.96
2016-04-04T11:01:36.192Z,999.01
2016-04-04T11:02:36.242Z,999.01
2016-04-04T11:03:36.275Z,999.14
2016-04-04T11:04:36.325Z,999.12
2016-04-04T11:05:36.359Z,999.09
2016-04-04T11:06:36.409Z,999.13
2016-04-04T11:07:36.458Z,999.15
2016-04-04T11:08:36.487Z,999.12
2016-04-04T11:09:36.536Z,999.12
2016-04-04T11:10:36.585Z,999.18
2016-04-04T11:11:36.619Z,999.2
2016-04-04T11:12:36.669Z,999.29
2016-04-04T11:13:36.703Z,999.24
2016-04-04T11:14:36.753Z,999.23
2016-04-04T11:15:36.786Z,999.2
2016-04-04T11:16:36.836Z,999.29
2016-04-04T11:17:36.870Z,999.33
2016-04-04T11:18:36.920Z,999.27
2016-04-04T11:19:36.969Z,999.25
2016-04-04T11:20:37.003Z,999.29
2016-04-04T11:21:37.053Z,999.25
2016-04-04T11:22:37.087Z,999.3
2016-04-04T11:23:37.136Z,999.28
2016-04-04T11:24:37.186Z,999.28
2016-04-04T11:25:37.220Z,999.32
2016-04-04T11:26:37.269Z,999.35
2016-04-04T11:27:37.303Z,999.31
2016-04-04T11:28:37.338Z,999.44
2016-04-04T11:29:37.386Z,999.3
2016-04-04T11:30:37.421Z,999.23
2016-04-04T11:31:37.470Z,999.24
2016-04-04T11:32:37.519Z,999.28
2016-04-04T11:33:37.553Z,999.31
2016-04-04T11:34:37.618Z,999.29
2016-04-04T11:35:37.637Z,999.3
2016-04-04T11:36:37.686Z,999.44
2016-04-04T11:37:37.720Z,999.46
2016-04-04T11:38:37.776Z,999.39
2016-04-04T11:39:37.809Z,999.48
2016-04-04T11:40:37.859Z,999.45
2016-04-04T11:41:37.908Z,999.5
2016-04-04T11:42:37.942Z,999.44
2016-04-04T11:43:37.976Z,999.48
2016-04-04T11:44:38.025Z,999.51
2016-04-04T11:45:38.059Z,999.57
2016-04-04T11:46:38.108Z,999.49
2016-04-04T11:47:38.158Z,999.53
2016-04-04T11:48:38.192Z,999.53
2016-04-04T11:49:38.226Z,999.55
2016-04-04T11:50:38.275Z,999.6
2016-04-04T11:51:38.325Z,999.71
2016-04-04T11:52:38.360Z,999.59
2016-04-04T11:53:38.408Z,999.67
2016-04-04T11:54:38.444Z,999.74
2016-04-04T11:55:38.493Z,999.75
2016-04-04T11:56:38.527Z,999.72
2016-04-04T11:57:38.577Z,999.82
2016-04-04T11:58:38.610Z,999.82
2016-04-04T11:59:38.660Z,999.84
2016-04-04T12:00:38.693Z,999.76
2016-04-04T12:01:38.743Z,999.79
2016-04-04T12:02:38.777Z,999.81
2016-04-04T12:03:38.826Z,999.79
2016-04-04T12:04:38.876Z,999.72
2016-04-04T12:05:38.909Z,999.69
2016-04-04T12:06:38.943Z,999.74
2016-04-04T12:07:38.993Z,999.71
2016-04-04T12:08:39.027Z,999.79
2016-04-04T12:09:39.077Z,999.78
2016-04-04T12:10:39.111Z,999.87
2016-04-04T12:11:39.161Z,999.85
2016-04-04T12:12:39.195Z,999.86
2016-04-04T12:13:39.245Z,999.81
2016-04-04T12:14:39.278Z,999.81
2016-04-04T12:15:39.328Z,999.77
2016-04-04T12:16:39.361Z,999.73
2016-04-04T12:17:39.395Z,999.72
2016-04-04T12:18:39.445Z,999.72
2016-04-04T12:19:39.494Z,999.83
2016-04-04T12:20:39.529Z,999.78
2016-04-04T12:21:39.563Z,999.77
2016-04-04T12:22:39.612Z,999.91
2016-04-04T12:23:39.647Z,999.91
2016-04-04T12:24:39.696Z,999.95
2016-04-04T12:25:39.730Z,999.98
2016-04-04T12:26:39.780Z,999.99
2016-04-04T12:27:39.813Z,999.97
2016-04-04T12:28:39.863Z,1000